sensor_id;sensor_type;location;lat;lon;timestamp;P1;durP1;ratioP1;P2;durP2;ratioP2
14554;SDS011;7364;50.870;4.722;2023-04-06T00:01:19;19.23;;;12.60;;
14554;SDS011;7364;50.870;4.722;2023-04-06T00:03:48;18.30;;;13.63;;
14554;SDS011;7364;50.870;4.722;2023-04-06T00:06:16;18.07;;;12.60;;
14554;SDS011;7364;50.870;4.722;2023-04-06T00:08:43;19.53;;;14.40;;
14554;SDS011;7364;50.870;4.722;2023-04-06T00:11:10;18.50;;;14.30;;
14554;SDS011;7364;50.870;4.722;2023-04-06T00:13:38;19.10;;;14.23;;
14554;SDS011;7364;50.870;4.722;2023-04-06T00:16:06;21.20;;;15.53;;
14554;SDS011;7364;50.870;4.722;2023-04-06T00:18:33;19.47;;;14.60;;
14554;SDS011;7364;50.870;4.722;2023-04-06T00:21:02;23.20;;;15.40;;
14554;SDS011;7364;50.870;4.722;2023-04-06T00:23:30;20.97;;;14.57;;
14554;SDS011;7364;50.870;4.722;2023-04-06T00:25:57;18.97;;;14.50;;
14554;SDS011;7364;50.870;4.722;2023-04-06T00:28:24;18.10;;;14.17;;
14554;SDS011;7364;50.870;4.722;2023-04-06T00:30:51;22.27;;;14.90;;
14554;SDS011;7364;50.870;4.722;2023-04-06T00:33:20;19.23;;;13.97;;
14554;SDS011;7364;50.870;4.722;2023-04-06T00:35:47;20.67;;;13.27;;
14554;SDS011;7364;50.870;4.722;2023-04-06T00:38:17;19.50;;;14.27;;
14554;SDS011;7364;50.870;4.722;2023-04-06T00:40:44;24.73;;;14.60;;
14554;SDS011;7364;50.870;4.722;2023-04-06T00:43:12;19.83;;;13.30;;
14554;SDS011;7364;50.870;4.722;2023-04-06T00:45:39;21.47;;;13.97;;
14554;SDS011;7364;50.870;4.722;2023-04-06T00:48:08;20.40;;;13.33;;
14554;SDS011;7364;50.870;4.722;2023-04-06T00:50:35;20.87;;;13.17;;
14554;SDS011;7364;50.870;4.722;2023-04-06T00:53:02;21.77;;;13.30;;
14554;SDS011;7364;50.870;4.722;2023-04-06T00:55:31;19.83;;;13.43;;
14554;SDS011;7364;50.870;4.722;2023-04-06T00:58:01;25.60;;;16.90;;
14554;SDS011;7364;50.870;4.722;2023-04-06T01:00:29;36.17;;;20.23;;
14554;SDS011;7364;50.870;4.722;2023-04-06T01:02:56;24.60;;;15.60;;
14554;SDS011;7364;50.870;4.722;2023-04-06T01:05:23;21.90;;;14.53;;
14554;SDS011;7364;50.870;4.722;2023-04-06T01:07:51;22.70;;;13.97;;
14554;SDS011;7364;50.870;4.722;2023-04-06T01:10:24;17.07;;;13.43;;
14554;SDS011;7364;50.870;4.722;2023-04-06T01:12:54;23.57;;;13.53;;
14554;SDS011;7364;50.870;4.722;2023-04-06T01:15:21;20.23;;;12.10;;
14554;SDS011;7364;50.870;4.722;2023-04-06T01:17:49;21.80;;;13.60;;
14554;SDS011;7364;50.870;4.722;2023-04-06T01:20:17;19.87;;;13.07;;
14554;SDS011;7364;50.870;4.722;2023-04-06T01:22:45;18.03;;;13.33;;
14554;SDS011;7364;50.870;4.722;2023-04-06T01:25:16;19.80;;;12.93;;
14554;SDS011;7364;50.870;4.722;2023-04-06T01:27:44;21.37;;;14.30;;
14554;SDS011;7364;50.870;4.722;2023-04-06T01:30:12;17.83;;;14.07;;
14554;SDS011;7364;50.870;4.722;2023-04-06T01:32:41;18.43;;;12.70;;
14554;SDS011;7364;50.870;4.722;2023-04-06T01:35:08;19.03;;;13.43;;
14554;SDS011;7364;50.870;4.722;2023-04-06T01:37:36;21.73;;;13.63;;
14554;SDS011;7364;50.870;4.722;2023-04-06T01:40:05;20.70;;;13.70;;
14554;SDS011;7364;50.870;4.722;2023-04-06T01:42:33;20.67;;;12.87;;
14554;SDS011;7364;50.870;4.722;2023-04-06T01:45:01;15.80;;;12.07;;
14554;SDS011;7364;50.870;4.722;2023-04-06T01:47:28;16.43;;;13.40;;
14554;SDS011;7364;50.870;4.722;2023-04-06T01:49:56;17.23;;;13.23;;
14554;SDS011;7364;50.870;4.722;2023-04-06T01:52:23;15.93;;;12.00;;
14554;SDS011;7364;50.870;4.722;2023-04-06T01:54:50;18.93;;;13.53;;
14554;SDS011;7364;50.870;4.722;2023-04-06T01:57:19;19.93;;;14.00;;
14554;SDS011;7364;50.870;4.722;2023-04-06T01:59:47;25.47;;;16.80;;
14554;SDS011;7364;50.870;4.722;2023-04-06T02:02:14;25.07;;;14.30;;
14554;SDS011;7364;50.870;4.722;2023-04-06T02:04:41;19.40;;;14.17;;
14554;SDS011;7364;50.870;4.722;2023-04-06T02:07:08;15.10;;;12.57;;
14554;SDS011;7364;50.870;4.722;2023-04-06T02:09:36;14.73;;;10.77;;
14554;SDS011;7364;50.870;4.722;2023-04-06T02:12:03;13.83;;;11.70;;
14554;SDS011;7364;50.870;4.722;2023-04-06T02:14:32;15.33;;;11.93;;
14554;SDS011;7364;50.870;4.722;2023-04-06T02:16:59;17.93;;;12.47;;
14554;SDS011;7364;50.870;4.722;2023-04-06T02:19:27;15.17;;;11.50;;
14554;SDS011;7364;50.870;4.722;2023-04-06T02:21:54;16.50;;;11.37;;
14554;SDS011;7364;50.870;4.722;2023-04-06T02:24:21;16.37;;;11.63;;
14554;SDS011;7364;50.870;4.722;2023-04-06T02:26:49;19.27;;;12.10;;
14554;SDS011;7364;50.870;4.722;2023-04-06T02:29:16;20.30;;;14.30;;
14554;SDS011;7364;50.870;4.722;2023-04-06T02:31:45;18.93;;;12.20;;
14554;SDS011;7364;50.870;4.722;2023-04-06T02:34:12;22.30;;;13.53;;
14554;SDS011;7364;50.870;4.722;2023-04-06T02:36:42;21.90;;;13.67;;
14554;SDS011;7364;50.870;4.722;2023-04-06T02:39:10;19.60;;;13.33;;
14554;SDS011;7364;50.870;4.722;2023-04-06T02:41:38;18.93;;;12.30;;
14554;SDS011;7364;50.870;4.722;2023-04-06T02:44:06;18.40;;;13.13;;
14554;SDS011;7364;50.870;4.722;2023-04-06T02:46:34;17.80;;;12.00;;
14554;SDS011;7364;50.870;4.722;2023-04-06T02:49:03;19.07;;;13.03;;
14554;SDS011;7364;50.870;4.722;2023-04-06T02:51:31;19.00;;;13.33;;
14554;SDS011;7364;50.870;4.722;2023-04-06T02:53:58;24.37;;;15.27;;
14554;SDS011;7364;50.870;4.722;2023-04-06T02:56:26;27.03;;;17.37;;
14554;SDS011;7364;50.870;4.722;2023-04-06T02:58:53;18.73;;;13.50;;
14554;SDS011;7364;50.870;4.722;2023-04-06T03:01:20;17.87;;;14.00;;
14554;SDS011;7364;50.870;4.722;2023-04-06T03:03:48;21.97;;;13.33;;
14554;SDS011;7364;50.870;4.722;2023-04-06T03:06:17;20.40;;;11.50;;
14554;SDS011;7364;50.870;4.722;2023-04-06T03:08:44;19.70;;;12.47;;
14554;SDS011;7364;50.870;4.722;2023-04-06T03:11:12;15.33;;;12.03;;
14554;SDS011;7364;50.870;4.722;2023-04-06T03:13:39;15.27;;;11.47;;
14554;SDS011;7364;50.870;4.722;2023-04-06T03:16:07;21.40;;;13.37;;
14554;SDS011;7364;50.870;4.722;2023-04-06T03:18:34;19.80;;;14.23;;
14554;SDS011;7364;50.870;4.722;2023-04-06T03:21:01;19.47;;;12.87;;
14554;SDS011;7364;50.870;4.722;2023-04-06T03:23:30;19.90;;;13.30;;
14554;SDS011;7364;50.870;4.722;2023-04-06T03:25:58;20.27;;;13.17;;
14554;SDS011;7364;50.870;4.722;2023-04-06T03:28:25;19.53;;;12.80;;
14554;SDS011;7364;50.870;4.722;2023-04-06T03:30:52;17.77;;;13.10;;
14554;SDS011;7364;50.870;4.722;2023-04-06T03:33:20;18.30;;;12.97;;
14554;SDS011;7364;50.870;4.722;2023-04-06T03:35:47;18.63;;;13.37;;
14554;SDS011;7364;50.870;4.722;2023-04-06T03:38:14;18.73;;;12.97;;
14554;SDS011;7364;50.870;4.722;2023-04-06T03:40:43;17.27;;;12.43;;
14554;SDS011;7364;50.870;4.722;2023-04-06T03:43:11;15.50;;;12.13;;
14554;SDS011;7364;50.870;4.722;2023-04-06T03:45:38;20.10;;;13.30;;
14554;SDS011;7364;50.870;4.722;2023-04-06T03:48:06;23.53;;;19.23;;
14554;SDS011;7364;50.870;4.722;2023-04-06T03:50:33;29.30;;;18.97;;
14554;SDS011;7364;50.870;4.722;2023-04-06T03:53:01;24.13;;;15.23;;
14554;SDS011;7364;50.870;4.722;2023-04-06T03:55:28;22.63;;;14.20;;
14554;SDS011;7364;50.870;4.722;2023-04-06T03:57:57;15.60;;;13.27;;
14554;SDS011;7364;50.870;4.722;2023-04-06T04:00:24;20.80;;;13.57;;
14554;SDS011;7364;50.870;4.722;2023-04-06T04:02:53;23.37;;;13.57;;
14554;SDS011;7364;50.870;4.722;2023-04-06T04:05:21;18.30;;;12.97;;
14554;SDS011;7364;50.870;4.722;2023-04-06T04:07:50;18.47;;;13.00;;
14554;SDS011;7364;50.870;4.722;2023-04-06T04:10:17;19.67;;;12.93;;
14554;SDS011;7364;50.870;4.722;2023-04-06T04:12:45;15.63;;;12.60;;
14554;SDS011;7364;50.870;4.722;2023-04-06T04:15:14;18.90;;;12.80;;
14554;SDS011;7364;50.870;4.722;2023-04-06T04:17:41;17.07;;;13.03;;
14554;SDS011;7364;50.870;4.722;2023-04-06T04:20:12;18.37;;;12.83;;
14554;SDS011;7364;50.870;4.722;2023-04-06T04:22:40;19.10;;;12.63;;
14554;SDS011;7364;50.870;4.722;2023-04-06T04:25:08;18.50;;;12.60;;
14554;SDS011;7364;50.870;4.722;2023-04-06T04:27:36;16.43;;;13.10;;
14554;SDS011;7364;50.870;4.722;2023-04-06T04:30:04;17.97;;;12.67;;
14554;SDS011;7364;50.870;4.722;2023-04-06T04:32:34;17.40;;;14.13;;
14554;SDS011;7364;50.870;4.722;2023-04-06T04:35:01;21.70;;;14.80;;
14554;SDS011;7364;50.870;4.722;2023-04-06T04:37:29;17.17;;;13.73;;
14554;SDS011;7364;50.870;4.722;2023-04-06T04:39:57;20.70;;;15.47;;
14554;SDS011;7364;50.870;4.722;2023-04-06T04:42:24;24.27;;;17.03;;
14554;SDS011;7364;50.870;4.722;2023-04-06T04:44:51;20.60;;;15.77;;
14554;SDS011;7364;50.870;4.722;2023-04-06T04:47:19;19.60;;;15.00;;
14554;SDS011;7364;50.870;4.722;2023-04-06T04:49:47;15.60;;;13.03;;
14554;SDS011;7364;50.870;4.722;2023-04-06T04:52:15;18.13;;;14.13;;
14554;SDS011;7364;50.870;4.722;2023-04-06T04:54:42;19.43;;;13.90;;
14554;SDS011;7364;50.870;4.722;2023-04-06T04:57:12;20.30;;;12.70;;
14554;SDS011;7364;50.870;4.722;2023-04-06T04:59:39;17.63;;;13.57;;
14554;SDS011;7364;50.870;4.722;2023-04-06T05:02:06;18.83;;;13.73;;
14554;SDS011;7364;50.870;4.722;2023-04-06T05:04:35;15.50;;;11.63;;
14554;SDS011;7364;50.870;4.722;2023-04-06T05:07:05;18.73;;;13.80;;
14554;SDS011;7364;50.870;4.722;2023-04-06T05:09:33;18.37;;;12.93;;
14554;SDS011;7364;50.870;4.722;2023-04-06T05:12:01;17.97;;;11.83;;
14554;SDS011;7364;50.870;4.722;2023-04-06T05:14:28;15.93;;;13.20;;
14554;SDS011;7364;50.870;4.722;2023-04-06T05:16:56;16.77;;;12.90;;
14554;SDS011;7364;50.870;4.722;2023-04-06T05:19:23;20.27;;;13.43;;
14554;SDS011;7364;50.870;4.722;2023-04-06T05:21:51;19.90;;;14.20;;
14554;SDS011;7364;50.870;4.722;2023-04-06T05:24:19;15.93;;;12.40;;
14554;SDS011;7364;50.870;4.722;2023-04-06T05:26:47;16.43;;;13.30;;
14554;SDS011;7364;50.870;4.722;2023-04-06T05:29:15;22.37;;;16.57;;
14554;SDS011;7364;50.870;4.722;2023-04-06T05:31:43;30.70;;;21.80;;
14554;SDS011;7364;50.870;4.722;2023-04-06T05:34:10;34.00;;;22.67;;
14554;SDS011;7364;50.870;4.722;2023-04-06T05:36:38;26.33;;;18.47;;
14554;SDS011;7364;50.870;4.722;2023-04-06T05:39:06;21.80;;;14.97;;
14554;SDS011;7364;50.870;4.722;2023-04-06T05:41:35;23.17;;;14.93;;
14554;SDS011;7364;50.870;4.722;2023-04-06T05:44:02;22.93;;;15.17;;
14554;SDS011;7364;50.870;4.722;2023-04-06T05:46:30;18.90;;;13.20;;
14554;SDS011;7364;50.870;4.722;2023-04-06T05:48:57;17.63;;;12.73;;
14554;SDS011;7364;50.870;4.722;2023-04-06T05:51:24;17.37;;;12.67;;
14554;SDS011;7364;50.870;4.722;2023-04-06T05:53:54;21.97;;;13.93;;
14554;SDS011;7364;50.870;4.722;2023-04-06T05:56:23;15.93;;;13.53;;
14554;SDS011;7364;50.870;4.722;2023-04-06T05:58:52;19.17;;;14.73;;
14554;SDS011;7364;50.870;4.722;2023-04-06T06:01:19;20.17;;;13.83;;
14554;SDS011;7364;50.870;4.722;2023-04-06T06:03:46;20.50;;;13.63;;
14554;SDS011;7364;50.870;4.722;2023-04-06T06:06:14;19.03;;;14.50;;
14554;SDS011;7364;50.870;4.722;2023-04-06T06:08:41;22.37;;;13.57;;
14554;SDS011;7364;50.870;4.722;2023-04-06T06:11:09;17.87;;;13.40;;
14554;SDS011;7364;50.870;4.722;2023-04-06T06:13:36;16.60;;;12.23;;
14554;SDS011;7364;50.870;4.722;2023-04-06T06:16:05;18.20;;;12.13;;
14554;SDS011;7364;50.870;4.722;2023-04-06T06:18:34;20.13;;;12.23;;
14554;SDS011;7364;50.870;4.722;2023-04-06T06:21:02;17.17;;;13.07;;
14554;SDS011;7364;50.870;4.722;2023-04-06T06:23:30;19.37;;;12.97;;
14554;SDS011;7364;50.870;4.722;2023-04-06T06:25:57;20.10;;;13.07;;
14554;SDS011;7364;50.870;4.722;2023-04-06T06:28:26;18.53;;;11.57;;
14554;SDS011;7364;50.870;4.722;2023-04-06T06:30:53;16.63;;;11.30;;
14554;SDS011;7364;50.870;4.722;2023-04-06T06:33:23;16.13;;;11.20;;
14554;SDS011;7364;50.870;4.722;2023-04-06T06:35:51;17.07;;;12.30;;
14554;SDS011;7364;50.870;4.722;2023-04-06T06:38:19;17.07;;;12.73;;
14554;SDS011;7364;50.870;4.722;2023-04-06T06:40:50;19.23;;;11.80;;
14554;SDS011;7364;50.870;4.722;2023-04-06T06:43:18;18.77;;;12.03;;
14554;SDS011;7364;50.870;4.722;2023-04-06T06:45:46;23.27;;;13.10;;
14554;SDS011;7364;50.870;4.722;2023-04-06T06:48:13;22.50;;;12.30;;
14554;SDS011;7364;50.870;4.722;2023-04-06T06:50:42;14.87;;;11.00;;
14554;SDS011;7364;50.870;4.722;2023-04-06T06:53:09;18.67;;;12.73;;
14554;SDS011;7364;50.870;4.722;2023-04-06T06:55:37;19.00;;;12.50;;
14554;SDS011;7364;50.870;4.722;2023-04-06T06:58:05;19.53;;;13.13;;
14554;SDS011;7364;50.870;4.722;2023-04-06T07:00:32;15.47;;;12.43;;
14554;SDS011;7364;50.870;4.722;2023-04-06T07:03:00;19.43;;;12.67;;
14554;SDS011;7364;50.870;4.722;2023-04-06T07:05:27;16.10;;;11.13;;
14554;SDS011;7364;50.870;4.722;2023-04-06T07:07:56;18.13;;;12.30;;
14554;SDS011;7364;50.870;4.722;2023-04-06T07:10:24;19.13;;;12.73;;
14554;SDS011;7364;50.870;4.722;2023-04-06T07:12:53;22.23;;;13.60;;
14554;SDS011;7364;50.870;4.722;2023-04-06T07:15:20;16.93;;;12.97;;
14554;SDS011;7364;50.870;4.722;2023-04-06T07:17:48;17.60;;;12.90;;
14554;SDS011;7364;50.870;4.722;2023-04-06T07:20:17;17.87;;;12.00;;
14554;SDS011;7364;50.870;4.722;2023-04-06T07:22:45;19.10;;;12.70;;
14554;SDS011;7364;50.870;4.722;2023-04-06T07:25:15;20.33;;;12.60;;
14554;SDS011;7364;50.870;4.722;2023-04-06T07:27:42;16.60;;;12.00;;
14554;SDS011;7364;50.870;4.722;2023-04-06T07:30:10;15.40;;;11.73;;
14554;SDS011;7364;50.870;4.722;2023-04-06T07:32:38;19.30;;;13.63;;
14554;SDS011;7364;50.870;4.722;2023-04-06T07:35:07;19.83;;;14.13;;
14554;SDS011;7364;50.870;4.722;2023-04-06T07:37:34;18.07;;;13.37;;
14554;SDS011;7364;50.870;4.722;2023-04-06T07:40:02;23.47;;;13.83;;
14554;SDS011;7364;50.870;4.722;2023-04-06T07:42:32;16.47;;;13.03;;
14554;SDS011;7364;50.870;4.722;2023-04-06T07:45:00;16.40;;;13.07;;
14554;SDS011;7364;50.870;4.722;2023-04-06T07:47:28;14.57;;;12.47;;
14554;SDS011;7364;50.870;4.722;2023-04-06T07:49:56;19.40;;;13.27;;
14554;SDS011;7364;50.870;4.722;2023-04-06T07:52:24;15.77;;;12.97;;
14554;SDS011;7364;50.870;4.722;2023-04-06T07:54:51;16.23;;;13.60;;
14554;SDS011;7364;50.870;4.722;2023-04-06T07:57:19;17.73;;;13.17;;
14554;SDS011;7364;50.870;4.722;2023-04-06T07:59:48;17.43;;;13.13;;
14554;SDS011;7364;50.870;4.722;2023-04-06T08:02:16;20.50;;;13.10;;
14554;SDS011;7364;50.870;4.722;2023-04-06T08:04:43;19.33;;;13.40;;
14554;SDS011;7364;50.870;4.722;2023-04-06T08:07:11;18.30;;;13.37;;
14554;SDS011;7364;50.870;4.722;2023-04-06T08:09:39;16.47;;;13.27;;
14554;SDS011;7364;50.870;4.722;2023-04-06T08:12:07;16.57;;;13.10;;
14554;SDS011;7364;50.870;4.722;2023-04-06T08:14:34;16.37;;;11.93;;
14554;SDS011;7364;50.870;4.722;2023-04-06T08:17:03;13.83;;;11.93;;
14554;SDS011;7364;50.870;4.722;2023-04-06T08:19:31;14.40;;;11.13;;
14554;SDS011;7364;50.870;4.722;2023-04-06T08:21:59;17.97;;;11.80;;
14554;SDS011;7364;50.870;4.722;2023-04-06T08:24:27;14.80;;;11.73;;
14554;SDS011;7364;50.870;4.722;2023-04-06T08:26:57;13.83;;;10.63;;
14554;SDS011;7364;50.870;4.722;2023-04-06T08:29:25;14.60;;;11.40;;
14554;SDS011;7364;50.870;4.722;2023-04-06T08:31:53;15.67;;;11.10;;
14554;SDS011;7364;50.870;4.722;2023-04-06T08:34:22;14.67;;;10.17;;
14554;SDS011;7364;50.870;4.722;2023-04-06T08:36:50;13.57;;;10.30;;
14554;SDS011;7364;50.870;4.722;2023-04-06T08:39:27;15.00;;;10.30;;
14554;SDS011;7364;50.870;4.722;2023-04-06T08:41:57;14.77;;;10.60;;
14554;SDS011;7364;50.870;4.722;2023-04-06T08:44:26;15.53;;;10.27;;
14554;SDS011;7364;50.870;4.722;2023-04-06T08:46:54;14.43;;;10.40;;
14554;SDS011;7364;50.870;4.722;2023-04-06T08:49:23;19.97;;;11.07;;
14554;SDS011;7364;50.870;4.722;2023-04-06T08:51:51;13.97;;;9.40;;
14554;SDS011;7364;50.870;4.722;2023-04-06T08:54:18;14.77;;;10.13;;
14554;SDS011;7364;50.870;4.722;2023-04-06T08:56:45;15.83;;;10.47;;
14554;SDS011;7364;50.870;4.722;2023-04-06T08:59:14;12.70;;;10.33;;
14554;SDS011;7364;50.870;4.722;2023-04-06T09:01:42;14.13;;;10.70;;
14554;SDS011;7364;50.870;4.722;2023-04-06T09:04:11;14.63;;;10.47;;
14554;SDS011;7364;50.870;4.722;2023-04-06T09:06:40;15.70;;;11.07;;
14554;SDS011;7364;50.870;4.722;2023-04-06T09:09:09;13.10;;;9.67;;
14554;SDS011;7364;50.870;4.722;2023-04-06T09:11:43;14.43;;;10.47;;
14554;SDS011;7364;50.870;4.722;2023-04-06T09:14:13;15.20;;;11.17;;
14554;SDS011;7364;50.870;4.722;2023-04-06T09:16:42;14.77;;;10.47;;
14554;SDS011;7364;50.870;4.722;2023-04-06T09:19:11;11.03;;;9.23;;
14554;SDS011;7364;50.870;4.722;2023-04-06T09:21:40;18.47;;;10.90;;
14554;SDS011;7364;50.870;4.722;2023-04-06T09:24:08;19.00;;;11.37;;
14554;SDS011;7364;50.870;4.722;2023-04-06T09:26:45;13.70;;;10.37;;
14554;SDS011;7364;50.870;4.722;2023-04-06T09:29:22;17.17;;;12.20;;
14554;SDS011;7364;50.870;4.722;2023-04-06T09:31:51;12.77;;;10.80;;
14554;SDS011;7364;50.870;4.722;2023-04-06T09:34:31;13.30;;;9.53;;
14554;SDS011;7364;50.870;4.722;2023-04-06T09:37:00;12.23;;;10.87;;
14554;SDS011;7364;50.870;4.722;2023-04-06T09:39:38;14.90;;;11.07;;
14554;SDS011;7364;50.870;4.722;2023-04-06T09:42:06;14.43;;;11.03;;
14554;SDS011;7364;50.870;4.722;2023-04-06T09:44:34;14.97;;;10.70;;
14554;SDS011;7364;50.870;4.722;2023-04-06T09:47:02;12.97;;;10.37;;
14554;SDS011;7364;50.870;4.722;2023-04-06T09:49:33;16.20;;;11.70;;
14554;SDS011;7364;50.870;4.722;2023-04-06T09:52:03;14.47;;;11.63;;
14554;SDS011;7364;50.870;4.722;2023-04-06T09:54:33;17.27;;;11.17;;
14554;SDS011;7364;50.870;4.722;2023-04-06T09:57:05;15.33;;;11.20;;
14554;SDS011;7364;50.870;4.722;2023-04-06T09:59:40;16.80;;;11.83;;
14554;SDS011;7364;50.870;4.722;2023-04-06T10:02:19;13.73;;;10.47;;
14554;SDS011;7364;50.870;4.722;2023-04-06T10:04:57;16.27;;;11.43;;
14554;SDS011;7364;50.870;4.722;2023-04-06T10:07:30;15.60;;;10.53;;
14554;SDS011;7364;50.870;4.722;2023-04-06T10:09:59;15.43;;;10.63;;
14554;SDS011;7364;50.870;4.722;2023-04-06T10:12:29;14.93;;;9.70;;
14554;SDS011;7364;50.870;4.722;2023-04-06T10:14:57;15.30;;;9.73;;
14554;SDS011;7364;50.870;4.722;2023-04-06T10:17:25;14.23;;;11.13;;
14554;SDS011;7364;50.870;4.722;2023-04-06T10:19:53;14.20;;;10.30;;
14554;SDS011;7364;50.870;4.722;2023-04-06T10:22:32;13.67;;;10.53;;
14554;SDS011;7364;50.870;4.722;2023-04-06T10:25:07;15.23;;;10.67;;
14554;SDS011;7364;50.870;4.722;2023-04-06T10:27:35;14.47;;;11.10;;
14554;SDS011;7364;50.870;4.722;2023-04-06T10:30:03;15.93;;;10.53;;
14554;SDS011;7364;50.870;4.722;2023-04-06T10:32:33;15.93;;;10.27;;
14554;SDS011;7364;50.870;4.722;2023-04-06T10:35:09;14.17;;;10.83;;
14554;SDS011;7364;50.870;4.722;2023-04-06T10:40:34;14.17;;;10.10;;
14554;SDS011;7364;50.870;4.722;2023-04-06T10:43:09;12.23;;;9.40;;
14554;SDS011;7364;50.870;4.722;2023-04-06T10:45:38;13.47;;;9.77;;
14554;SDS011;7364;50.870;4.722;2023-04-06T10:48:14;15.17;;;10.50;;
14554;SDS011;7364;50.870;4.722;2023-04-06T10:50:42;19.70;;;13.03;;
14554;SDS011;7364;50.870;4.722;2023-04-06T10:53:20;12.60;;;11.03;;
14554;SDS011;7364;50.870;4.722;2023-04-06T10:55:50;14.27;;;10.90;;
14554;SDS011;7364;50.870;4.722;2023-04-06T10:58:18;17.77;;;10.50;;
14554;SDS011;7364;50.870;4.722;2023-04-06T11:00:47;13.00;;;10.27;;
14554;SDS011;7364;50.870;4.722;2023-04-06T11:03:15;15.17;;;9.80;;
14554;SDS011;7364;50.870;4.722;2023-04-06T11:05:43;17.77;;;10.50;;
14554;SDS011;7364;50.870;4.722;2023-04-06T11:08:24;12.80;;;11.23;;
14554;SDS011;7364;50.870;4.722;2023-04-06T11:11:03;14.60;;;10.40;;
14554;SDS011;7364;50.870;4.722;2023-04-06T11:13:37;15.10;;;10.93;;
14554;SDS011;7364;50.870;4.722;2023-04-06T11:16:05;12.80;;;10.67;;
14554;SDS011;7364;50.870;4.722;2023-04-06T11:18:34;15.77;;;10.43;;
14554;SDS011;7364;50.870;4.722;2023-04-06T11:21:01;14.23;;;12.33;;
14554;SDS011;7364;50.870;4.722;2023-04-06T11:23:30;15.07;;;10.70;;
14554;SDS011;7364;50.870;4.722;2023-04-06T11:26:02;14.77;;;10.27;;
14554;SDS011;7364;50.870;4.722;2023-04-06T11:28:30;13.57;;;10.93;;
14554;SDS011;7364;50.870;4.722;2023-04-06T11:31:00;21.93;;;11.73;;
14554;SDS011;7364;50.870;4.722;2023-04-06T11:33:30;15.90;;;9.87;;
14554;SDS011;7364;50.870;4.722;2023-04-06T11:36:07;12.93;;;10.73;;
14554;SDS011;7364;50.870;4.722;2023-04-06T11:38:39;15.57;;;11.63;;
14554;SDS011;7364;50.870;4.722;2023-04-06T11:41:08;17.53;;;11.93;;
14554;SDS011;7364;50.870;4.722;2023-04-06T11:43:36;16.77;;;12.43;;
14554;SDS011;7364;50.870;4.722;2023-04-06T11:46:10;13.90;;;10.10;;
14554;SDS011;7364;50.870;4.722;2023-04-06T11:48:44;13.40;;;10.57;;
14554;SDS011;7364;50.870;4.722;2023-04-06T11:51:12;13.13;;;9.97;;
14554;SDS011;7364;50.870;4.722;2023-04-06T11:53:51;15.77;;;10.77;;
14554;SDS011;7364;50.870;4.722;2023-04-06T11:56:23;20.37;;;12.00;;
14554;SDS011;7364;50.870;4.722;2023-04-06T11:58:52;13.17;;;9.93;;
14554;SDS011;7364;50.870;4.722;2023-04-06T12:01:24;13.33;;;9.67;;
14554;SDS011;7364;50.870;4.722;2023-04-06T12:03:53;15.40;;;10.37;;
14554;SDS011;7364;50.870;4.722;2023-04-06T12:06:21;14.33;;;10.63;;
14554;SDS011;7364;50.870;4.722;2023-04-06T12:08:54;13.17;;;9.23;;
14554;SDS011;7364;50.870;4.722;2023-04-06T12:11:21;15.70;;;12.13;;
14554;SDS011;7364;50.870;4.722;2023-04-06T12:13:49;13.40;;;8.87;;
14554;SDS011;7364;50.870;4.722;2023-04-06T12:16:17;18.23;;;10.73;;
14554;SDS011;7364;50.870;4.722;2023-04-06T12:18:45;12.37;;;9.73;;
14554;SDS011;7364;50.870;4.722;2023-04-06T12:21:12;13.43;;;10.37;;
14554;SDS011;7364;50.870;4.722;2023-04-06T12:23:41;14.97;;;10.93;;
14554;SDS011;7364;50.870;4.722;2023-04-06T12:26:10;12.60;;;9.33;;
14554;SDS011;7364;50.870;4.722;2023-04-06T12:28:37;11.80;;;9.80;;
14554;SDS011;7364;50.870;4.722;2023-04-06T12:31:05;12.73;;;9.23;;
14554;SDS011;7364;50.870;4.722;2023-04-06T12:33:33;13.03;;;10.03;;
14554;SDS011;7364;50.870;4.722;2023-04-06T12:36:00;12.47;;;10.20;;
14554;SDS011;7364;50.870;4.722;2023-04-06T12:38:28;10.93;;;8.47;;
14554;SDS011;7364;50.870;4.722;2023-04-06T12:40:55;14.43;;;9.70;;
14554;SDS011;7364;50.870;4.722;2023-04-06T12:43:25;12.10;;;9.67;;
14554;SDS011;7364;50.870;4.722;2023-04-06T12:45:52;9.93;;;8.80;;
14554;SDS011;7364;50.870;4.722;2023-04-06T12:48:20;14.57;;;9.77;;
14554;SDS011;7364;50.870;4.722;2023-04-06T12:50:53;15.00;;;9.63;;
14554;SDS011;7364;50.870;4.722;2023-04-06T12:53:21;12.27;;;8.60;;
14554;SDS011;7364;50.870;4.722;2023-04-06T12:55:49;14.47;;;9.17;;
14554;SDS011;7364;50.870;4.722;2023-04-06T12:58:17;11.80;;;9.00;;
14554;SDS011;7364;50.870;4.722;2023-04-06T13:00:46;9.77;;;8.77;;
14554;SDS011;7364;50.870;4.722;2023-04-06T13:03:15;11.27;;;9.67;;
14554;SDS011;7364;50.870;4.722;2023-04-06T13:05:44;13.93;;;9.53;;
14554;SDS011;7364;50.870;4.722;2023-04-06T13:08:13;13.97;;;9.67;;
14554;SDS011;7364;50.870;4.722;2023-04-06T13:10:43;14.33;;;10.13;;
14554;SDS011;7364;50.870;4.722;2023-04-06T13:13:11;11.77;;;10.27;;
14554;SDS011;7364;50.870;4.722;2023-04-06T13:15:38;13.47;;;10.57;;
14554;SDS011;7364;50.870;4.722;2023-04-06T13:18:08;12.63;;;9.10;;
14554;SDS011;7364;50.870;4.722;2023-04-06T13:20:36;12.90;;;10.17;;
14554;SDS011;7364;50.870;4.722;2023-04-06T13:23:09;14.87;;;10.37;;
14554;SDS011;7364;50.870;4.722;2023-04-06T13:25:38;13.33;;;9.73;;
14554;SDS011;7364;50.870;4.722;2023-04-06T13:28:10;18.37;;;11.40;;
14554;SDS011;7364;50.870;4.722;2023-04-06T13:30:43;15.07;;;10.67;;
14554;SDS011;7364;50.870;4.722;2023-04-06T13:33:27;12.50;;;10.97;;
14554;SDS011;7364;50.870;4.722;2023-04-06T13:36:06;13.53;;;11.60;;
14554;SDS011;7364;50.870;4.722;2023-04-06T13:38:35;14.83;;;11.20;;
14554;SDS011;7364;50.870;4.722;2023-04-06T13:41:04;14.20;;;12.43;;
14554;SDS011;7364;50.870;4.722;2023-04-06T13:43:31;14.83;;;11.00;;
14554;SDS011;7364;50.870;4.722;2023-04-06T13:45:59;15.17;;;10.17;;
14554;SDS011;7364;50.870;4.722;2023-04-06T13:48:28;12.93;;;11.07;;
14554;SDS011;7364;50.870;4.722;2023-04-06T13:50:57;14.87;;;11.70;;
14554;SDS011;7364;50.870;4.722;2023-04-06T13:53:25;13.03;;;11.57;;
14554;SDS011;7364;50.870;4.722;2023-04-06T13:55:53;15.53;;;12.37;;
14554;SDS011;7364;50.870;4.722;2023-04-06T13:58:20;15.77;;;12.60;;
14554;SDS011;7364;50.870;4.722;2023-04-06T14:00:49;18.67;;;13.27;;
14554;SDS011;7364;50.870;4.722;2023-04-06T14:03:17;16.00;;;13.30;;
14554;SDS011;7364;50.870;4.722;2023-04-06T14:05:46;16.70;;;12.50;;
14554;SDS011;7364;50.870;4.722;2023-04-06T14:08:14;14.90;;;10.83;;
14554;SDS011;7364;50.870;4.722;2023-04-06T14:10:42;15.50;;;12.27;;
14554;SDS011;7364;50.870;4.722;2023-04-06T14:13:11;16.10;;;12.27;;
14554;SDS011;7364;50.870;4.722;2023-04-06T14:15:38;18.50;;;12.27;;
14554;SDS011;7364;50.870;4.722;2023-04-06T14:18:06;14.87;;;12.53;;
14554;SDS011;7364;50.870;4.722;2023-04-06T14:20:37;18.87;;;11.80;;
14554;SDS011;7364;50.870;4.722;2023-04-06T14:23:06;15.83;;;11.23;;
14554;SDS011;7364;50.870;4.722;2023-04-06T14:25:34;13.83;;;11.43;;
14554;SDS011;7364;50.870;4.722;2023-04-06T14:28:01;19.17;;;13.43;;
14554;SDS011;7364;50.870;4.722;2023-04-06T14:30:29;15.57;;;10.43;;
14554;SDS011;7364;50.870;4.722;2023-04-06T14:32:58;14.23;;;10.60;;
14554;SDS011;7364;50.870;4.722;2023-04-06T14:35:25;12.83;;;10.97;;
14554;SDS011;7364;50.870;4.722;2023-04-06T14:37:53;16.83;;;11.67;;
14554;SDS011;7364;50.870;4.722;2023-04-06T14:40:23;14.67;;;12.27;;
14554;SDS011;7364;50.870;4.722;2023-04-06T14:42:51;14.57;;;11.47;;
14554;SDS011;7364;50.870;4.722;2023-04-06T14:45:20;15.80;;;12.10;;
14554;SDS011;7364;50.870;4.722;2023-04-06T14:47:48;17.13;;;13.73;;